Belmar, New Jersey
Current Conditions -  °F | °C
As of 7:35 AM on Wednesday 26 Nov 2014 (Local Time) from KBLM Reporting Station
Overcast Overcast  
Wind Chill: 40°   Ceiling: 4600
Heat Index: 46°   Visibility: 10mi
Dew Point: 30°   Wind: 14mph
Humidity: 53%   Direction: 40°NE
Pressure: 30.12"   Gusts: NA
Location:  40.18°N, 74.02°W
Report Text: KBLM 261235Z AUTO 04012KT 10SM BKN046 BKN050 OVC080 08/M01 A3012 RMK AO1
Loading
Personal Weather Stations






























Interactive Weather Map New forecast layout! Learn more

10-Day Weather Forecast

Advertisements
Track Severe Weather on mobile